Latest Weather Observations for Thargomindah

IDQ60801

Issued at 10:32 am EST Friday 30 January 2015 (issued every 30 minutes, with the page automatically refreshed every 10 minutes)

About weather observations | Map of weather stations | Latest weather observations for QLD | Other Formats
Station Details ID: 045025 Name: THARGOMINDAH AIRPORT Lat: -27.99 Lon: 143.81 Height: 130.89 m
Data from the previous 72 hours. | See also: Recent months at Thargomindah
Date/Time
EST
Temp
°C
App
Temp
°C
Dew
Point
Rel
Hum
%
Delta-T
°C
Wind Press
QNH
hPa
Press
MSL
hPa
Rain
since 9 am
mm
Dir
 
Spd
km/h
Gust
km/h
Spd
kts
Gust
kts
30/10:30am 32.4 28.6 5.8 19 14.3 WSW 15 20 8 11 1009.9 - 0.0
30/10:00am 30.8 28.7 6.6 22 13.1 WNW 7 11 4 6 1010.1 - 0.0
30/09:30am 30.4 28.5 7.6 24 12.5 NNW 7 11 4 6 1010.1 - 0.0
30/09:00am 29.7 27.7 7.0 24 12.3 NNW 7 11 4 6 1010.3 1009.1 0.0
30/08:30am 28.6 26.7 6.7 25 11.7 ESE 6 9 3 5 1010.3 - 0.0
30/08:00am 28.0 25.8 6.2 25 11.5 ESE 7 9 4 5 1010.1 - 0.0
30/07:30am 26.4 23.9 6.4 28 10.5 SE 9 11 5 6 1010.1 - 0.0
30/07:00am 24.9 22.2 5.7 29 9.9 SE 9 13 5 7 1010.0 - 0.0
30/06:30am 23.6 20.9 5.5 31 9.2 SSE 9 13 5 7 1009.7 - 0.0
30/06:00am 22.4 19.4 5.8 34 8.4 S 11 13 6 7 1009.3 1008.1 0.0
30/05:30am 21.1 18.9 5.5 36 7.8 S 6 15 3 8 1009.0 - 0.0
30/05:00am 21.9 19.7 5.3 34 8.3 S 6 7 3 4 1008.5 - 0.0
30/04:30am 22.3 20.5 5.3 33 8.5 SSE 4 6 2 3 1008.4 - 0.0
30/04:00am 23.4 20.6 5.3 31 9.1 E 9 13 5 7 1008.4 - 0.0
30/03:30am 24.0 21.6 5.4 30 9.4 ESE 7 11 4 6 1008.3 - 0.0
30/03:00am 24.6 21.9 5.4 29 9.8 SE 9 11 5 6 1008.4 1007.2 0.0
30/02:30am 24.8 22.5 5.6 29 9.8 ESE 7 11 4 6 1008.5 - 0.0
30/02:00am 25.5 22.7 5.1 27 10.4 ESE 9 13 5 7 1008.8 - 0.0
30/01:30am 25.5 22.7 5.1 27 10.4 ESE 9 13 5 7 1008.9 - 0.0
30/01:00am 26.0 23.2 5.0 26 10.7 ESE 9 13 5 7 1008.9 - 0.0
30/12:30am 26.9 23.2 4.6 24 11.4 SSE 13 17 7 9 1009.0 - 0.0
30/12:00am 27.2 23.5 4.3 23 11.7 SSE 13 17 7 9 1009.1 1007.9 0.0
 
Date/Time
EST
Temp
°C
App
Temp
°C
Dew
Point
Rel
Hum
%
Delta-T
°C
Wind Press
QNH
hPa
Press
MSL
hPa
Rain
since 9 am
mm
Dir
 
Spd
km/h
Gust
km/h
Spd
kts
Gust
kts
29/11:30pm 27.2 23.5 4.3 23 11.6 S 13 19 7 10 1009.3 - 0.0
29/11:00pm 27.6 24.3 4.6 23 11.8 SSE 11 13 6 7 1009.3 - 0.0
29/10:30pm 28.3 24.9 3.9 21 12.4 SE 11 13 6 7 1009.4 - 0.0
29/10:00pm 29.0 25.6 3.8 20 12.8 SE 11 15 6 8 1009.3 - 0.0
29/09:30pm 29.3 25.9 4.0 20 13.0 SSE 11 13 6 7 1009.2 - 0.0
29/09:00pm 29.8 26.7 3.7 19 13.4 SE 9 11 5 6 1008.9 1007.7 0.0
29/08:30pm 30.6 27.0 2.8 17 14.1 SE 11 15 6 8 1008.7 - 0.0
29/08:00pm 31.2 27.1 2.4 16 14.6 SE 13 17 7 9 1008.4 - 0.0
29/07:30pm 31.8 28.0 2.0 15 15.0 SE 11 17 6 9 1008.1 - 0.0
29/07:00pm 32.7 27.5 2.7 15 15.3 SSE 19 24 10 13 1007.7 - 0.0
29/06:30pm 33.5 28.3 2.4 14 15.9 SE 19 28 10 15 1007.5 - 0.0
29/06:00pm 33.8 28.4 2.6 14 16.1 ESE 20 26 11 14 1007.2 1006.2 0.0
29/05:30pm 34.2 28.9 2.9 14 16.2 SSE 20 28 11 15 1007.0 - 0.0
29/05:00pm 34.1 28.4 2.8 14 16.2 SSE 22 30 12 16 1006.9 - 0.0
29/04:30pm 34.0 28.4 3.7 15 15.9 SSE 22 37 12 20 1007.1 - 0.0
29/04:00pm 34.5 28.3 4.1 15 16.1 S 26 44 14 24 1007.1 - 0.0
29/03:30pm 34.0 28.8 3.7 15 15.9 SSE 20 37 11 20 1007.3 - 0.0
29/03:00pm 33.5 28.3 3.3 15 15.7 SE 20 35 11 19 1007.5 1006.5 0.0
29/02:30pm 34.2 28.5 4.8 16 15.7 SSE 24 35 13 19 1007.8 - 0.0
29/02:00pm 32.8 28.9 6.9 20 14.2 ESE 17 39 9 21 1008.3 - 0.0
29/01:30pm 34.2 29.0 7.3 19 14.9 ESE 24 35 13 19 1008.6 - 0.0
29/01:00pm 34.0 29.9 8.6 21 14.4 SE 20 35 11 19 1009.0 - 0.0
29/12:30pm 32.3 27.6 7.9 22 13.6 SSE 22 33 12 18 1009.3 - 0.0
29/12:00pm 32.1 28.5 8.4 23 13.3 E 17 30 9 16 1009.6 1008.5 0.0
29/11:30am 31.0 28.3 10.4 28 11.8 ESE 15 30 8 16 1009.9 - 0.0
29/11:00am 31.3 28.6 11.7 30 11.5 SE 17 30 9 16 1010.2 - 0.0
29/10:30am 30.1 27.7 12.5 34 10.4 SE 17 26 9 14 1010.5 - 0.0
29/10:00am 29.5 27.3 13.3 37 9.7 E 17 24 9 13 1010.5 - 0.0
29/09:30am 28.5 26.4 13.6 40 8.9 ESE 17 28 9 15 1010.6 - 0.0
29/09:00am 28.4 26.7 13.5 40 8.9 ESE 15 24 8 13 1010.5 1009.3 0.0
29/08:30am 27.3 25.2 13.6 43 8.2 E 17 26 9 14 1010.3 - 0.0
29/08:00am 26.5 24.1 13.9 45 7.5 E 19 26 10 14 1010.1 - 0.0
29/07:30am 26.0 23.5 14.1 47 7.1 E 20 26 11 14 1009.9 - 0.0
29/07:00am 25.1 23.0 13.6 49 6.8 ESE 17 24 9 13 1009.7 - 0.0
29/06:30am 24.5 22.4 13.7 51 6.4 ESE 17 26 9 14 1009.3 - 0.0
29/06:00am 24.2 22.5 13.7 52 6.2 ESE 15 24 8 13 1008.9 1007.7 0.0
29/05:30am 24.5 22.6 13.1 49 6.6 E 15 20 8 11 1008.6 - 0.0
29/05:00am 25.0 22.7 12.9 47 7.0 ESE 17 26 9 14 1008.3 - 0.0
29/04:30am 25.1 23.3 12.0 44 7.5 ESE 13 20 7 11 1007.9 - 0.0
29/04:00am 25.6 22.8 11.4 41 8.1 ESE 17 26 9 14 1007.5 - 0.0
29/03:30am 25.3 23.0 10.4 39 8.3 ESE 13 19 7 10 1007.4 - 0.0
29/03:00am 25.2 23.1 9.9 38 8.5 SE 11 13 6 7 1007.0 1005.9 0.0
29/02:30am 25.3 23.5 9.6 37 8.7 SE 9 11 5 6 1006.9 - 0.0
29/02:00am 25.8 24.3 9.2 35 9.1 ESE 7 9 4 5 1006.9 - 0.0
29/01:30am 26.2 24.3 9.1 34 9.4 ESE 9 11 5 6 1007.0 - 0.0
29/01:00am 26.6 24.7 9.0 33 9.7 SE 9 11 5 6 1007.1 - 0.0
29/12:30am 27.4 25.6 9.3 32 10.0 SE 9 11 5 6 1007.3 - 0.0
29/12:00am 27.8 25.8 8.6 30 10.6 SE 9 13 5 7 1007.4 1006.3 0.0
 
Date/Time
EST
Temp
°C
App
Temp
°C
Dew
Point
Rel
Hum
%
Delta-T
°C
Wind Press
QNH
hPa
Press
MSL
hPa
Rain
since 9 am
mm
Dir
 
Spd
km/h
Gust
km/h
Spd
kts
Gust
kts
28/11:30pm 28.6 26.2 8.8 29 11.0 SE 11 17 6 9 1007.5 - 0.0
28/11:00pm 28.7 25.9 8.4 28 11.2 SE 13 15 7 8 1007.4 - 0.0
28/10:30pm 29.2 26.3 8.3 27 11.5 SSE 13 17 7 9 1007.3 - 0.0
28/10:00pm 29.5 26.6 8.0 26 11.8 SSE 13 19 7 10 1007.1 - 0.0
28/09:30pm 29.8 26.8 7.7 25 12.1 SSE 13 17 7 9 1006.8 - 0.0
28/09:00pm 30.1 27.4 7.3 24 12.4 SSE 11 15 6 8 1006.6 1005.5 0.0
28/08:30pm 30.8 27.7 7.3 23 12.8 SE 13 20 7 11 1006.2 - 0.0
28/08:00pm 31.4 27.5 7.1 22 13.3 SSE 17 22 9 12 1005.9 - 0.0
28/07:30pm 31.8 27.6 7.5 22 13.4 SE 19 26 10 14 1005.4 - 0.0
28/07:00pm 32.5 27.2 6.7 20 14.1 SE 24 35 13 19 1005.1 - 0.0
28/06:30pm 32.9 27.4 7.7 21 14.0 SE 26 35 14 19 1004.7 - 0.0
28/06:00pm 33.4 28.4 8.1 21 14.2 SE 24 33 13 18 1004.4 1003.2 0.0
28/05:30pm 33.7 28.6 7.6 20 14.5 SE 24 35 13 19 1004.1 - 0.0
28/05:00pm 34.5 29.4 7.5 19 15.1 SSE 24 39 13 21 1003.9 - 0.0
28/04:30pm 34.0 29.1 7.1 19 14.9 SSE 22 32 12 17 1003.8 - 0.0
28/04:00pm 34.7 29.8 4.3 15 16.1 ESE 19 32 10 17 1003.8 - 0.0
28/03:30pm 35.4 31.0 7.5 18 15.6 SE 20 28 11 15 1003.9 - 0.0
28/03:00pm 33.6 28.5 7.5 20 14.6 SSE 24 32 13 17 1004.1 1002.9 0.0
28/02:30pm 33.1 29.5 8.5 22 13.9 S 17 41 9 22 1004.4 - 0.0
28/02:00pm 34.2 30.5 9.4 22 14.2 SSE 19 30 10 16 1004.6 - 0.0
28/01:30pm 32.6 28.6 8.1 22 13.7 ESE 19 32 10 17 1005.0 - 0.0
28/01:00pm 32.1 28.7 9.0 24 13.0 S 17 28 9 15 1005.3 - 0.0
28/12:30pm 32.4 29.3 11.6 28 12.3 S 19 30 10 16 1005.7 - 0.0
28/12:00pm 31.5 28.7 11.3 29 11.8 SSE 17 41 9 22 1006.2 1005.0 0.0
28/11:30am 30.3 27.8 12.2 33 10.7 ESE 17 28 9 15 1006.4 - 0.0
28/11:00am 29.1 26.0 12.1 35 10.0 SE 20 26 11 14 1006.8 - 0.0
28/10:30am 29.6 26.8 12.5 35 10.1 SE 19 26 10 14 1007.1 - 0.0
28/10:00am 28.4 25.6 12.7 38 9.3 SSE 19 24 10 13 1007.3 - 0.0
28/09:30am 28.0 25.6 12.8 39 9.0 ESE 17 26 9 14 1007.3 - 0.0
28/09:00am 26.7 23.5 11.2 38 8.9 ESE 19 30 10 16 1007.3 1006.2 0.0
28/08:30am 25.4 21.2 7.5 32 9.5 SE 19 26 10 14 1007.2 - 0.0
28/08:00am 24.7 19.6 3.9 26 10.3 SE 20 28 11 15 1006.9 - 0.0
28/07:30am 24.0 18.8 2.2 24 10.4 SSE 19 26 10 14 1006.8 - 0.0
28/07:00am 23.2 17.8 1.5 24 10.2 SSE 19 22 10 12 1006.5 - 0.0
28/06:30am 22.4 17.8 1.4 25 9.8 S 15 20 8 11 1006.2 - 0.0
28/06:00am 22.1 17.1 1.2 25 9.7 S 17 20 9 11 1006.1 1005.0 0.0
28/05:30am 22.3 17.3 1.3 25 9.8 S 17 24 9 13 1005.7 - 0.0
28/05:00am 22.4 17.3 0.9 24 9.9 S 17 24 9 13 1005.6 - 0.0
28/04:30am 22.6 17.5 1.0 24 10.0 S 17 20 9 11 1005.5 - 0.0
28/04:00am 22.8 17.3 0.6 23 10.2 S 19 26 10 14 1005.3 - 0.0
28/03:30am 23.1 17.6 0.9 23 10.3 S 19 26 10 14 1005.2 - 0.0
28/03:00am 23.5 17.4 0.6 22 10.6 S 22 28 12 15 1005.2 1004.0 0.0
28/02:30am 23.8 17.8 0.8 22 10.7 S 22 32 12 17 1005.4 - 0.0
28/02:00am 24.2 18.1 0.5 21 11.0 S 22 28 12 15 1005.7 - 0.0
28/01:30am 24.6 18.6 0.8 21 11.1 S 22 30 12 16 1006.1 - 0.0
28/01:00am 24.9 19.2 0.4 20 11.4 S 20 28 11 15 1006.3 - 0.0
28/12:30am 25.3 18.8 0.0 19 11.7 S 24 33 13 18 1006.4 - 0.0
28/12:00am 25.6 19.7 -0.5 18 12.1 S 20 28 11 15 1006.6 1005.5 0.0
 
Date/Time
EST
Temp
°C
App
Temp
°C
Dew
Point
Rel
Hum
%
Delta-T
°C
Wind Press
QNH
hPa
Press
MSL
hPa
Rain
since 9 am
mm
Dir
 
Spd
km/h
Gust
km/h
Spd
kts
Gust
kts
27/11:30pm 26.1 20.1 -1.7 16 12.6 S 20 26 11 14 1006.9 - 0.0
27/11:00pm 26.8 20.7 -2.0 15 13.0 S 20 26 11 14 1007.0 - 0.0
27/10:30pm 27.2 21.3 -2.6 14 13.4 S 19 24 10 13 1007.0 - 0.0
27/10:00pm 27.8 21.3 -2.1 14 13.6 S 22 28 12 15 1007.0 - 0.0
27/09:30pm 28.3 21.9 -1.7 14 13.8 S 22 30 12 16 1006.8 - 0.0
27/09:00pm 28.7 22.6 -2.4 13 14.2 S 20 33 11 18 1006.5 1005.4 0.0
27/08:30pm 29.4 22.6 -1.9 13 14.5 SSW 24 32 13 17 1006.1 - 0.0
27/08:00pm 29.9 22.6 -2.6 12 14.9 S 26 33 14 18 1005.7 - 0.0
27/07:30pm 30.6 22.6 -2.0 12 15.2 SSW 30 37 16 20 1005.1 - 0.0
27/07:00pm 31.2 23.2 -2.7 11 15.7 SSW 30 39 16 21 1004.8 - 0.0
27/06:30pm 32.0 24.0 -2.1 11 16.0 SSW 30 39 16 21 1004.3 - 0.0
27/06:00pm 32.7 25.4 -2.9 10 16.7 SW 26 37 14 20 1004.0 1002.8 0.0
27/05:30pm 33.3 25.3 -2.4 10 16.8 SSW 30 43 16 23 1003.6 - 0.0
27/05:00pm 33.9 26.7 -2.0 10 17.1 SW 26 35 14 19 1003.6 - 0.0
27/04:30pm 33.8 26.6 -2.0 10 17.1 SW 26 35 14 19 1003.8 - 0.0
27/04:00pm 34.0 26.8 -1.9 10 17.2 SSW 26 37 14 20 1004.0 - 0.0
27/03:30pm 34.3 27.3 -0.4 11 17.0 SSW 26 43 14 23 1004.2 - 0.0
27/03:00pm 34.7 28.5 -0.1 11 17.3 SW 22 35 12 19 1004.5 1003.3 0.0
27/02:30pm 33.4 27.5 -1.0 11 16.6 S 20 32 11 17 1004.9 - 0.0
27/02:00pm 33.7 28.0 0.4 12 16.5 S 20 33 11 18 1005.4 - 0.0
27/01:30pm 33.9 27.4 0.5 12 16.6 SW 24 33 13 18 1005.7 - 0.0
27/01:00pm 32.5 26.8 0.6 13 15.7 S 20 35 11 19 1006.1 - 0.0
27/12:30pm 31.9 25.0 0.1 13 15.5 S 26 37 14 20 1006.4 - 0.0
27/12:00pm 32.7 26.6 0.7 13 15.9 SSW 22 35 12 19 1006.6 1005.5 0.0
27/11:30am 32.0 25.5 0.2 13 15.5 S 24 35 13 19 1007.1 - 0.0
27/11:00am 31.8 25.8 1.0 14 15.2 S 22 33 12 18 1007.4 - 0.0

Other Formats:

Comma delimited format used in spreadsheet applications
http://www.bom.gov.au/fwo/IDQ60801/IDQ60801.95492.axf

JavaScript Object Notation format (JSON) in row-major order
http://www.bom.gov.au/fwo/IDQ60801/IDQ60801.95492.json